Time;durP1;ratioP1;P1;durP2;ratioP2;P2;SDS_P1;SDS_P2;PMS_P1;PMS_P2;Temp;Humidity;BMP_temperature;BMP_pressure;BME280_temperature;BME280_humidity;BME280_pressure;Samples;Min_cycle;Max_cycle;Signal;HPM_P1;HPM_P2
2022/09/01 00:00:34;;;;;;;;;;;16.30;99.90;;;;;;5074460;28;20185;-81
2022/09/01 00:03:00;;;;;;;;;;;16.20;99.90;;;;;;5073114;28;20015;-82
2022/09/01 00:05:25;;;;;;;;;;;16.20;99.90;;;;;;5071705;28;19962;-80
2022/09/01 00:07:51;;;;;;;;;;;16.20;99.90;;;;;;5056395;28;20214;-77
2022/09/01 00:10:17;;;;;;;;;;;16.20;99.90;;;;;;5074668;28;19977;-81
2022/09/01 00:12:44;;;;;;;;;;;16.20;99.90;;;;;;5074939;28;19916;-79
2022/09/01 00:15:10;;;;;;;;;;;16.20;99.90;;;;;;5054877;28;20307;-77
2022/09/01 00:17:36;;;;;;;;;;;16.10;99.90;;;;;;5074720;28;19912;-78
2022/09/01 00:20:02;;;;;;;;;;;16.10;99.90;;;;;;5075102;28;19959;-82
2022/09/01 00:22:28;;;;;;;;;;;16.10;99.90;;;;;;5056373;28;19951;-77
2022/09/01 00:24:54;;;;;;;;;;;16.10;99.90;;;;;;5072002;28;19948;-76
2022/09/01 00:27:19;;;;;;;;;;;16.10;99.90;;;;;;5072029;28;20291;-81
2022/09/01 00:29:45;;;;;;;;;;;16.00;99.90;;;;;;5053480;28;20227;-78
2022/09/01 00:32:11;;;;;;;;;;;16.00;99.90;;;;;;5070317;28;19912;-79
2022/09/01 00:34:36;;;;;;;;;;;16.00;99.90;;;;;;5055924;28;19920;-78
2022/09/01 00:37:02;;;;;;;;;;;16.00;99.90;;;;;;5074088;28;20304;-84
2022/09/01 00:39:28;;;;;;;;;;;16.00;99.90;;;;;;5089668;28;19976;-74
2022/09/01 00:41:53;;;;;;;;;;;15.90;99.90;;;;;;5073718;28;19920;-89
2022/09/01 00:44:26;;;;;;;;;;;15.90;99.90;;;;;;5074736;28;19913;-85
2022/09/01 00:46:54;;;;;;;;;;;15.90;99.90;;;;;;5067979;28;19919;-81
2022/09/01 00:49:23;;;;;;;;;;;15.80;99.90;;;;;;5073143;28;20326;-84
2022/09/01 00:51:51;;;;;;;;;;;15.90;99.90;;;;;;5068518;28;19982;-79
2022/09/01 00:54:22;;;;;;;;;;;15.80;99.90;;;;;;5063666;28;19917;-80
2022/09/01 00:56:48;;;;;;;;;;;15.80;99.90;;;;;;5055517;28;19920;-82
2022/09/01 00:59:15;;;;;;;;;;;15.80;99.90;;;;;;5073530;28;20262;-84
2022/09/01 01:01:40;;;;;;;;;;;15.80;99.90;;;;;;5072994;28;19916;-77
2022/09/01 01:04:13;;;;;;;;;;;15.80;99.90;;;;;;5069685;28;20386;-85
2022/09/01 01:06:48;;;;;;;;;;;15.70;99.90;;;;;;5051119;28;19964;-80
2022/09/01 01:09:19;;;;;;;;;;;15.70;99.90;;;;;;5071514;28;19913;-81
2022/09/01 01:11:46;;;;;;;;;;;15.70;99.90;;;;;;5069540;28;20262;-76
2022/09/01 01:14:14;;;;;;;;;;;15.80;99.90;;;;;;5069266;28;20329;-79
2022/09/01 01:16:43;;;;;;;;;;;15.70;99.90;;;;;;5054683;28;20007;-78
2022/09/01 01:23:00;;;;;;;;;;;15.70;99.90;;;;;;5055974;28;19913;-78
2022/09/01 01:24:46;;;;;;;;;;;15.70;99.90;;;;;;5086845;28;19923;-80
2022/09/01 01:27:12;;;;;;;;;;;15.70;99.90;;;;;;5072434;28;19921;-79
2022/09/01 01:29:38;;;;;;;;;;;15.60;99.90;;;;;;5072981;28;19921;-82
2022/09/01 01:32:11;;;;;;;;;;;15.60;99.90;;;;;;5082595;28;20300;-77
2022/09/01 01:34:38;;;;;;;;;;;15.60;99.90;;;;;;5068166;28;19913;-79
2022/09/01 01:37:04;;;;;;;;;;;15.50;99.90;;;;;;5053830;28;19912;-79
2022/09/01 01:39:30;;;;;;;;;;;15.50;99.90;;;;;;5087420;28;19940;-84
2022/09/01 01:41:57;;;;;;;;;;;15.50;99.90;;;;;;5065554;28;19927;-78
2022/09/01 01:44:26;;;;;;;;;;;15.50;99.90;;;;;;5067258;28;19952;-86
2022/09/01 01:46:53;;;;;;;;;;;15.50;99.90;;;;;;5071961;28;19999;-79
2022/09/01 01:49:20;;;;;;;;;;;15.40;99.90;;;;;;5071980;28;19912;-80
2022/09/01 01:51:47;;;;;;;;;;;15.40;99.90;;;;;;5066871;28;19931;-80
2022/09/01 01:54:14;;;;;;;;;;;15.40;99.90;;;;;;5049151;28;19945;-79
2022/09/01 01:56:40;;;;;;;;;;;15.40;99.90;;;;;;5055870;28;19955;-81
2022/09/01 01:59:08;;;;;;;;;;;15.40;99.90;;;;;;5055042;28;20250;-78
2022/09/01 02:01:34;;;;;;;;;;;15.30;99.90;;;;;;5047889;28;19927;-81
2022/09/01 02:04:03;;;;;;;;;;;15.30;99.90;;;;;;5047035;28;19923;-76
2022/09/01 02:06:31;;;;;;;;;;;15.30;99.90;;;;;;5049640;28;20319;-83
2022/09/01 02:08:57;;;;;;;;;;;15.30;99.90;;;;;;5073181;28;19921;-80
2022/09/01 02:11:25;;;;;;;;;;;15.20;99.90;;;;;;5052373;28;20086;-82
2022/09/01 02:13:53;;;;;;;;;;;15.20;99.90;;;;;;5073699;28;20307;-76
2022/09/01 02:16:19;;;;;;;;;;;15.20;99.90;;;;;;5056963;28;20273;-75
2022/09/01 02:18:48;;;;;;;;;;;15.00;99.90;;;;;;5072403;28;20026;-75
2022/09/01 02:21:18;;;;;;;;;;;15.00;99.90;;;;;;5058646;28;19913;-74
2022/09/01 02:23:45;;;;;;;;;;;15.00;99.90;;;;;;5065809;28;19913;-74
2022/09/01 02:26:11;;;;;;;;;;;14.90;99.90;;;;;;5074342;28;19913;-74
2022/09/01 02:28:41;;;;;;;;;;;14.90;99.90;;;;;;5076143;28;19913;-75
2022/09/01 02:31:07;;;;;;;;;;;14.90;99.90;;;;;;5075080;28;19908;-75
2022/09/01 02:33:34;;;;;;;;;;;14.90;99.90;;;;;;5091555;28;19924;-77
2022/09/01 02:36:01;;;;;;;;;;;14.80;99.90;;;;;;5071645;28;19912;-74
2022/09/01 02:38:28;;;;;;;;;;;14.80;99.90;;;;;;5087919;28;19935;-74
2022/09/01 02:40:58;;;;;;;;;;;14.80;99.90;;;;;;5091125;28;19924;-79
2022/09/01 02:43:27;;;;;;;;;;;14.90;99.90;;;;;;5060982;28;19916;-75
2022/09/01 02:45:56;;;;;;;;;;;14.90;99.90;;;;;;5049990;28;19912;-74
2022/09/01 02:48:36;;;;;;;;;;;15.00;99.90;;;;;;5074489;28;19966;-74
2022/09/01 02:51:04;;;;;;;;;;;14.90;99.90;;;;;;5057103;28;19913;-75
2022/09/01 02:53:30;;;;;;;;;;;14.90;99.90;;;;;;5072163;28;19924;-75
2022/09/01 02:55:57;;;;;;;;;;;14.80;99.90;;;;;;5073543;28;19916;-75
2022/09/01 02:58:24;;;;;;;;;;;14.70;99.90;;;;;;5056071;28;19923;-74
2022/09/01 03:00:53;;;;;;;;;;;14.70;99.90;;;;;;5074458;28;20257;-74
2022/09/01 03:03:20;;;;;;;;;;;14.70;99.90;;;;;;5071671;28;19995;-75
2022/09/01 03:05:47;;;;;;;;;;;14.70;99.90;;;;;;5056208;28;19927;-80
2022/09/01 03:08:15;;;;;;;;;;;14.70;99.90;;;;;;5076538;28;20448;-74
2022/09/01 03:10:41;;;;;;;;;;;14.60;99.90;;;;;;5074856;28;20018;-75
2022/09/01 03:13:10;;;;;;;;;;;14.60;99.90;;;;;;5057308;28;19921;-75
2022/09/01 03:15:36;;;;;;;;;;;14.60;99.90;;;;;;5057659;28;19999;-74
2022/09/01 03:18:02;;;;;;;;;;;14.60;99.90;;;;;;5074504;28;19913;-75
2022/09/01 03:20:29;;;;;;;;;;;14.70;99.90;;;;;;5073365;28;19924;-75
2022/09/01 03:22:56;;;;;;;;;;;14.70;99.90;;;;;;5074615;28;19916;-81
2022/09/01 03:25:23;;;;;;;;;;;14.70;99.90;;;;;;5074166;28;19920;-75
2022/09/01 03:27:52;;;;;;;;;;;14.70;99.90;;;;;;5056733;28;20280;-74
2022/09/01 03:30:18;;;;;;;;;;;14.70;99.90;;;;;;5073569;28;20371;-74
2022/09/01 03:32:44;;;;;;;;;;;14.60;99.90;;;;;;5074257;28;19912;-79
2022/09/01 03:35:10;;;;;;;;;;;14.60;99.90;;;;;;5074407;28;20016;-75
2022/09/01 03:37:36;;;;;;;;;;;14.60;99.90;;;;;;5088278;28;19920;-79
2022/09/01 03:40:03;;;;;;;;;;;14.50;99.90;;;;;;5074054;28;19917;-75
2022/09/01 03:42:29;;;;;;;;;;;14.60;99.90;;;;;;5072965;28;19913;-74
2022/09/01 03:44:56;;;;;;;;;;;14.60;99.90;;;;;;5055354;28;20407;-75
2022/09/01 03:47:23;;;;;;;;;;;14.60;99.90;;;;;;5074066;28;19912;-90
2022/09/01 03:49:49;;;;;;;;;;;14.70;99.90;;;;;;5073564;28;20291;-75
2022/09/01 03:52:16;;;;;;;;;;;14.60;99.90;;;;;;5089032;28;20688;-75
2022/09/01 03:54:42;;;;;;;;;;;14.60;99.90;;;;;;5073190;28;20323;-76
2022/09/01 03:57:08;;;;;;;;;;;14.50;99.90;;;;;;5073330;28;19920;-76
2022/09/01 03:59:34;;;;;;;;;;;14.50;99.90;;;;;;5073013;28;19931;-75
2022/09/01 04:02:01;;;;;;;;;;;14.60;99.90;;;;;;5055911;28;19916;-75
2022/09/01 04:04:31;;;;;;;;;;;14.50;99.90;;;;;;5074655;28;19936;-75
2022/09/01 04:06:58;;;;;;;;;;;14.50;99.90;;;;;;5059184;28;19912;-79
2022/09/01 04:09:24;;;;;;;;;;;14.50;99.90;;;;;;5072907;28;20007;-75
2022/09/01 04:11:50;;;;;;;;;;;14.40;99.90;;;;;;5055666;28;19999;-75
2022/09/01 04:14:16;;;;;;;;;;;14.40;99.90;;;;;;5074843;28;19916;-75
2022/09/01 04:19:26;;;;;;;;;;;14.30;99.90;;;;;;5066764;28;20211;-75
2022/09/01 04:21:53;;;;;;;;;;;14.30;99.90;;;;;;5072329;28;19912;-75
2022/09/01 04:24:18;;;;;;;;;;;14.30;99.90;;;;;;5071793;28;19916;-75
2022/09/01 04:26:45;;;;;;;;;;;14.20;99.90;;;;;;5073683;28;19957;-74
2022/09/01 04:29:11;;;;;;;;;;;14.20;99.90;;;;;;5073391;28;19917;-75
2022/09/01 04:31:39;;;;;;;;;;;14.20;99.90;;;;;;5072584;28;19912;-74
2022/09/01 04:34:11;;;;;;;;;;;14.20;99.90;;;;;;5072404;28;20295;-75
2022/09/01 04:36:40;;;;;;;;;;;14.20;99.90;;;;;;5071591;28;20267;-80
2022/09/01 04:39:08;;;;;;;;;;;14.20;99.90;;;;;;5053930;28;20216;-74
2022/09/01 04:41:35;;;;;;;;;;;14.20;99.90;;;;;;5055060;28;19981;-80
2022/09/01 04:44:04;;;;;;;;;;;14.20;99.90;;;;;;5072746;28;19967;-79
2022/09/01 04:46:31;;;;;;;;;;;14.20;99.90;;;;;;5072415;28;20058;-78
2022/09/01 04:48:57;;;;;;;;;;;14.30;99.90;;;;;;5055413;28;20042;-78
2022/09/01 04:51:26;;;;;;;;;;;14.30;99.90;;;;;;5072363;28;20353;-77
2022/09/01 04:53:56;;;;;;;;;;;14.30;99.90;;;;;;5088804;28;19920;-78
2022/09/01 04:56:23;;;;;;;;;;;14.40;99.90;;;;;;5071855;28;19920;-78
2022/09/01 04:58:50;;;;;;;;;;;14.40;99.90;;;;;;5088661;28;20362;-78
2022/09/01 05:01:21;;;;;;;;;;;14.40;99.90;;;;;;5088347;28;19925;-78
2022/09/01 05:04:00;;;;;;;;;;;14.30;99.90;;;;;;5072997;28;19921;-77
2022/09/01 05:06:27;;;;;;;;;;;14.30;99.90;;;;;;5073202;28;19916;-80
2022/09/01 05:08:57;;;;;;;;;;;14.30;99.90;;;;;;5072560;28;19908;-79
2022/09/01 05:11:23;;;;;;;;;;;14.30;99.90;;;;;;5055233;28;19922;-78
2022/09/01 05:13:49;;;;;;;;;;;14.30;99.90;;;;;;5041108;28;19912;-78
2022/09/01 05:16:18;;;;;;;;;;;14.30;99.90;;;;;;5072229;28;19912;-78
2022/09/01 05:18:46;;;;;;;;;;;14.30;99.90;;;;;;5069310;28;19917;-77
2022/09/01 05:21:14;;;;;;;;;;;14.30;99.90;;;;;;5074054;28;19993;-78
2022/09/01 05:23:41;;;;;;;;;;;14.30;99.90;;;;;;5054901;28;19912;-79
2022/09/01 05:26:17;;;;;;;;;;;14.30;99.90;;;;;;5055810;28;19948;-78
2022/09/01 05:28:43;;;;;;;;;;;14.40;99.90;;;;;;5074294;28;19991;-78
2022/09/01 05:31:09;;;;;;;;;;;14.40;99.90;;;;;;5075272;28;19916;-78
2022/09/01 05:33:35;;;;;;;;;;;14.40;99.90;;;;;;5059097;28;20436;-75
2022/09/01 05:36:03;;;;;;;;;;;14.40;99.90;;;;;;5060421;28;19916;-78
2022/09/01 05:38:30;;;;;;;;;;;14.40;99.90;;;;;;5065324;28;19916;-78
2022/09/01 05:40:57;;;;;;;;;;;14.40;99.90;;;;;;5074545;28;19920;-78
2022/09/01 05:43:26;;;;;;;;;;;14.40;99.90;;;;;;5074476;28;19917;-78
2022/09/01 05:45:53;;;;;;;;;;;14.50;99.90;;;;;;5072092;28;19947;-80
2022/09/01 05:48:22;;;;;;;;;;;14.50;99.90;;;;;;5092261;28;19919;-78
2022/09/01 05:50:48;;;;;;;;;;;14.50;99.90;;;;;;5074868;28;19959;-78
2022/09/01 05:53:17;;;;;;;;;;;14.60;99.90;;;;;;5058412;28;19913;-79
2022/09/01 05:55:45;;;;;;;;;;;14.60;99.90;;;;;;5074532;28;19972;-78
2022/09/01 05:58:13;;;;;;;;;;;14.60;99.90;;;;;;5075606;28;20214;-82
2022/09/01 06:00:41;;;;;;;;;;;14.60;99.90;;;;;;5075183;28;19920;-77
2022/09/01 06:03:08;;;;;;;;;;;14.60;99.90;;;;;;5074659;28;19931;-78
2022/09/01 06:05:35;;;;;;;;;;;14.60;99.90;;;;;;5056647;28;19962;-78
2022/09/01 06:08:02;;;;;;;;;;;14.60;99.90;;;;;;5070222;28;19916;-78
2022/09/01 06:10:29;;;;;;;;;;;14.60;99.90;;;;;;5060928;28;19921;-78
2022/09/01 06:12:55;;;;;;;;;;;14.60;99.90;;;;;;5055717;28;19970;-78
2022/09/01 06:15:21;;;;;;;;;;;14.70;99.90;;;;;;5060422;28;19916;-78
2022/09/01 06:17:47;;;;;;;;;;;14.70;99.90;;;;;;5051846;28;19912;-77
2022/09/01 06:20:16;;;;;;;;;;;14.70;99.90;;;;;;5072071;28;19926;-77
2022/09/01 06:22:43;;;;;;;;;;;14.80;99.90;;;;;;5056647;28;19912;-78
2022/09/01 06:25:09;;;;;;;;;;;14.90;99.90;;;;;;5050126;28;19994;-77
2022/09/01 06:27:40;;;;;;;;;;;14.90;99.90;;;;;;5058574;28;19920;-76
2022/09/01 06:30:13;;;;;;;;;;;15.00;99.90;;;;;;5074592;28;19923;-77
2022/09/01 06:32:43;;;;;;;;;;;15.00;99.90;;;;;;5055525;28;19916;-76
2022/09/01 06:35:10;;;;;;;;;;;15.10;99.90;;;;;;5064838;28;20386;-77
2022/09/01 06:37:37;;;;;;;;;;;15.20;99.90;;;;;;5069964;28;20219;-76
2022/09/01 06:40:03;;;;;;;;;;;15.20;99.90;;;;;;5072447;28;19924;-78
2022/09/01 06:42:30;;;;;;;;;;;15.30;99.90;;;;;;5064863;28;19913;-79
2022/09/01 06:44:55;;;;;;;;;;;15.30;99.90;;;;;;5054518;28;19927;-76
2022/09/01 06:47:21;;;;;;;;;;;15.40;99.90;;;;;;5070364;28;19913;-77
2022/09/01 06:49:47;;;;;;;;;;;15.40;99.90;;;;;;5052859;28;19917;-77
2022/09/01 06:52:12;;;;;;;;;;;15.50;99.90;;;;;;5087091;28;19917;-77
2022/09/01 06:54:42;;;;;;;;;;;15.50;99.90;;;;;;5073209;28;20334;-76
2022/09/01 06:57:08;;;;;;;;;;;15.60;99.90;;;;;;5068116;28;19920;-78
2022/09/01 06:59:34;;;;;;;;;;;15.70;99.90;;;;;;5072129;28;19966;-77
2022/09/01 07:02:02;;;;;;;;;;;15.80;99.90;;;;;;5088295;28;19944;-76
2022/09/01 07:04:29;;;;;;;;;;;16.00;99.90;;;;;;5071695;28;19920;-77
2022/09/01 07:06:56;;;;;;;;;;;16.10;99.90;;;;;;5071739;28;19916;-78
2022/09/01 07:09:21;;;;;;;;;;;16.60;99.90;;;;;;5057734;28;19940;-78
2022/09/01 07:11:47;;;;;;;;;;;17.10;99.90;;;;;;5056835;28;20004;-78
2022/09/01 07:14:15;;;;;;;;;;;17.40;99.90;;;;;;5071878;28;19916;-76
2022/09/01 07:16:42;;;;;;;;;;;17.80;99.90;;;;;;5073962;28;19999;-80
2022/09/01 07:19:13;;;;;;;;;;;18.10;99.90;;;;;;5067000;28;19916;-78
2022/09/01 07:21:40;;;;;;;;;;;18.40;99.90;;;;;;5071843;28;19920;-76
2022/09/01 07:24:06;;;;;;;;;;;18.80;99.90;;;;;;5072094;28;19921;-78
2022/09/01 07:26:32;;;;;;;;;;;19.20;99.90;;;;;;5070676;28;19920;-75
2022/09/01 07:28:58;;;;;;;;;;;19.70;99.90;;;;;;5084624;28;19971;-77
2022/09/01 07:31:26;;;;;;;;;;;20.10;99.90;;;;;;5061959;28;19912;-75
2022/09/01 07:33:53;;;;;;;;;;;20.60;99.90;;;;;;5072236;28;19913;-75
2022/09/01 07:36:19;;;;;;;;;;;21.00;99.90;;;;;;5071528;28;19970;-75
2022/09/01 07:38:47;;;;;;;;;;;20.90;98.90;;;;;;5067406;28;19920;-75
2022/09/01 07:41:13;;;;;;;;;;;20.80;99.50;;;;;;5072856;28;19925;-75
2022/09/01 07:43:43;;;;;;;;;;;20.80;99.20;;;;;;5073121;28;19913;-76
2022/09/01 07:46:09;;;;;;;;;;;20.60;98.80;;;;;;5068300;28;19928;-77
2022/09/01 07:48:35;;;;;;;;;;;20.50;99.10;;;;;;5050858;28;20527;-77
2022/09/01 07:51:01;;;;;;;;;;;20.40;99.50;;;;;;5070559;28;19921;-78
2022/09/01 07:53:30;;;;;;;;;;;20.60;99.50;;;;;;5056010;28;19912;-76
2022/09/01 07:55:57;;;;;;;;;;;20.70;99.00;;;;;;5070915;28;20342;-75
2022/09/01 07:58:24;;;;;;;;;;;20.90;98.90;;;;;;5058076;28;20450;-76
2022/09/01 08:00:52;;;;;;;;;;;21.00;99.20;;;;;;5063103;28;19920;-78
2022/09/01 08:03:19;;;;;;;;;;;21.00;98.40;;;;;;5071691;28;20366;-77
2022/09/01 08:05:46;;;;;;;;;;;21.10;99.10;;;;;;5072009;28;19916;-77
2022/09/01 08:08:12;;;;;;;;;;;21.00;98.90;;;;;;5070996;28;19920;-76
2022/09/01 08:10:41;;;;;;;;;;;21.30;98.80;;;;;;5070636;28;19921;-76
2022/09/01 08:13:08;;;;;;;;;;;21.40;98.20;;;;;;5089407;28;19912;-75
2022/09/01 08:15:34;;;;;;;;;;;21.50;97.80;;;;;;5086255;28;19919;-75
2022/09/01 08:17:59;;;;;;;;;;;21.70;98.10;;;;;;5068464;28;19973;-75
2022/09/01 08:20:25;;;;;;;;;;;21.80;97.30;;;;;;5065242;28;20265;-75
2022/09/01 08:22:51;;;;;;;;;;;21.80;97.50;;;;;;5071580;28;19912;-79
2022/09/01 08:25:17;;;;;;;;;;;21.90;97.30;;;;;;5071021;28;20011;-78
2022/09/01 08:27:42;;;;;;;;;;;22.20;96.90;;;;;;5086420;28;19920;-77
2022/09/01 08:30:11;;;;;;;;;;;22.20;97.30;;;;;;5080956;28;19961;-75
2022/09/01 08:32:41;;;;;;;;;;;22.10;96.40;;;;;;5071082;28;19961;-76
2022/09/01 08:35:08;;;;;;;;;;;22.20;96.60;;;;;;5068364;28;19939;-76
2022/09/01 08:37:33;;;;;;;;;;;22.30;96.20;;;;;;5063691;28;19920;-75
2022/09/01 08:39:59;;;;;;;;;;;22.30;96.80;;;;;;5053083;28;19924;-76
2022/09/01 08:42:43;;;;;;;;;;;22.40;96.50;;;;;;5067529;28;20006;-79
2022/09/01 08:45:08;;;;;;;;;;;22.70;95.10;;;;;;5076961;28;19947;-75
2022/09/01 08:47:34;;;;;;;;;;;22.80;95.10;;;;;;5071068;28;20307;-76
2022/09/01 08:50:01;;;;;;;;;;;22.90;94.90;;;;;;5056423;28;19924;-77
2022/09/01 08:52:30;;;;;;;;;;;23.00;95.10;;;;;;5054340;28;19916;-76
2022/09/01 08:54:59;;;;;;;;;;;23.00;95.40;;;;;;5070400;28;20315;-77
2022/09/01 08:57:36;;;;;;;;;;;23.00;95.70;;;;;;5070786;28;20003;-77
2022/09/01 09:00:04;;;;;;;;;;;23.10;95.50;;;;;;5081808;28;19936;-83
2022/09/01 09:02:50;;;;;;;;;;;23.10;94.40;;;;;;5055681;28;19921;-78
2022/09/01 09:05:21;;;;;;;;;;;23.20;94.70;;;;;;5075214;28;20219;-76
2022/09/01 09:07:47;;;;;;;;;;;23.40;94.80;;;;;;5060887;28;19943;-84
2022/09/01 09:10:18;;;;;;;;;;;23.60;94.40;;;;;;5066438;28;20278;-77
2022/09/01 09:12:51;;;;;;;;;;;23.60;94.30;;;;;;5059047;28;19916;-77
2022/09/01 09:15:31;;;;;;;;;;;23.70;94.70;;;;;;5075357;28;19917;-79
2022/09/01 09:18:16;;;;;;;;;;;24.00;94.40;;;;;;5075552;28;19923;-76
2022/09/01 09:20:42;;;;;;;;;;;24.00;94.30;;;;;;5075329;28;19923;-87
2022/09/01 09:23:15;;;;;;;;;;;23.80;94.30;;;;;;5072747;28;20250;-77
2022/09/01 09:25:41;;;;;;;;;;;23.50;94.20;;;;;;5062810;28;19912;-77
2022/09/01 09:28:08;;;;;;;;;;;23.50;94.60;;;;;;5070739;28;19921;-77
2022/09/01 09:30:33;;;;;;;;;;;23.60;94.50;;;;;;5060925;28;20307;-77
2022/09/01 09:33:03;;;;;;;;;;;23.80;93.10;;;;;;5056341;28;20003;-76
2022/09/01 09:35:32;;;;;;;;;;;24.10;92.70;;;;;;5057189;28;19908;-87
2022/09/01 09:38:27;;;;;;;;;;;24.20;94.30;;;;;;5050973;28;19970;-79
2022/09/01 09:40:58;;;;;;;;;;;24.10;94.00;;;;;;5045723;28;19964;-82
2022/09/01 09:43:24;;;;;;;;;;;24.10;93.70;;;;;;5076102;28;19990;-74
2022/09/01 09:46:10;;;;;;;;;;;24.10;93.80;;;;;;5075638;28;20376;-76
2022/09/01 09:48:36;;;;;;;;;;;24.40;94.10;;;;;;5073598;28;19940;-75
2022/09/01 09:51:21;;;;;;;;;;;24.40;93.30;;;;;;5076719;28;19952;-75
2022/09/01 09:53:47;;;;;;;;;;;24.50;93.50;;;;;;5073474;28;20006;-76
2022/09/01 09:56:16;;;;;;;;;;;24.80;93.80;;;;;;5087609;28;19919;-77
2022/09/01 09:58:45;;;;;;;;;;;24.90;92.40;;;;;;5070778;28;20008;-75
2022/09/01 10:01:15;;;;;;;;;;;25.00;91.70;;;;;;5062174;28;19986;-76
2022/09/01 10:03:42;;;;;;;;;;;25.20;91.20;;;;;;5074822;28;19924;-76
2022/09/01 10:06:13;;;;;;;;;;;25.40;91.70;;;;;;5072856;28;20028;-75
2022/09/01 10:08:43;;;;;;;;;;;25.30;90.20;;;;;;5067118;28;19916;-75
2022/09/01 10:11:10;;;;;;;;;;;25.30;90.30;;;;;;5073259;28;19959;-79
2022/09/01 10:13:36;;;;;;;;;;;25.50;86.80;;;;;;5074368;28;19960;-78
2022/09/01 10:16:03;;;;;;;;;;;25.70;88.20;;;;;;5074477;28;19955;-75
2022/09/01 10:18:39;;;;;;;;;;;25.80;87.80;;;;;;5058304;28;20311;-77
2022/09/01 10:21:08;;;;;;;;;;;25.70;86.50;;;;;;5072649;28;19928;-79
2022/09/01 10:23:35;;;;;;;;;;;25.70;87.70;;;;;;5074234;28;19920;-80
2022/09/01 10:26:24;;;;;;;;;;;25.70;87.40;;;;;;5088532;28;19913;-79
2022/09/01 10:28:53;;;;;;;;;;;25.80;90.00;;;;;;5048365;28;19955;-74
2022/09/01 10:31:19;;;;;;;;;;;26.10;87.90;;;;;;5072988;28;19944;-76
2022/09/01 10:33:45;;;;;;;;;;;26.20;90.60;;;;;;5073270;28;20019;-80
2022/09/01 10:36:12;;;;;;;;;;;26.30;84.60;;;;;;5072330;28;20003;-77
2022/09/01 10:38:38;;;;;;;;;;;26.40;87.20;;;;;;5059367;28;19923;-74
2022/09/01 10:41:06;;;;;;;;;;;26.50;83.00;;;;;;5070151;28;19920;-77
2022/09/01 10:43:42;;;;;;;;;;;26.40;85.60;;;;;;5072426;28;19962;-78
2022/09/01 10:46:09;;;;;;;;;;;26.40;86.30;;;;;;5069756;28;20008;-81
2022/09/01 10:48:35;;;;;;;;;;;26.50;83.70;;;;;;5071351;28;19917;-77
2022/09/01 10:51:21;;;;;;;;;;;26.70;86.50;;;;;;5070058;28;19921;-77
2022/09/01 10:53:48;;;;;;;;;;;26.70;84.70;;;;;;5064010;28;19917;-77
2022/09/01 10:56:14;;;;;;;;;;;26.40;83.80;;;;;;5070324;28;20307;-77
2022/09/01 10:58:48;;;;;;;;;;;26.20;86.30;;;;;;5062130;28;19920;-80
2022/09/01 11:01:14;;;;;;;;;;;26.30;87.80;;;;;;5069750;28;19978;-78
2022/09/01 11:03:55;;;;;;;;;;;26.20;86.80;;;;;;5070992;28;19918;-78
2022/09/01 11:06:33;;;;;;;;;;;26.20;88.00;;;;;;5072396;28;19916;-76
2022/09/01 11:09:04;;;;;;;;;;;26.40;84.80;;;;;;5064852;28;19966;-78
2022/09/01 11:11:38;;;;;;;;;;;26.10;85.50;;;;;;5071270;28;19913;-80
2022/09/01 11:14:15;;;;;;;;;;;25.90;87.30;;;;;;5073382;28;19923;-79
2022/09/01 11:16:44;;;;;;;;;;;25.90;87.40;;;;;;5071395;28;19917;-78
2022/09/01 11:19:17;;;;;;;;;;;26.00;86.60;;;;;;5072471;28;20322;-78
2022/09/01 11:21:43;;;;;;;;;;;26.00;85.60;;;;;;5068498;28;19920;-77
2022/09/01 11:24:27;;;;;;;;;;;26.00;86.00;;;;;;5072697;28;19964;-76
2022/09/01 11:26:53;;;;;;;;;;;25.80;84.50;;;;;;5071689;28;20323;-79
2022/09/01 11:29:37;;;;;;;;;;;25.50;87.00;;;;;;5061117;28;19997;-79
2022/09/01 11:32:04;;;;;;;;;;;25.70;86.70;;;;;;5070036;28;19982;-78
2022/09/01 11:34:30;;;;;;;;;;;25.80;87.60;;;;;;5059672;28;19919;-76
2022/09/01 11:36:59;;;;;;;;;;;25.90;86.80;;;;;;5057396;28;19962;-76
2022/09/01 11:39:38;;;;;;;;;;;25.90;85.00;;;;;;5071170;28;20192;-78
2022/09/01 11:42:09;;;;;;;;;;;25.90;85.70;;;;;;5069362;28;20003;-79
2022/09/01 11:44:40;;;;;;;;;;;25.80;86.00;;;;;;5070774;28;20065;-81
2022/09/01 11:47:26;;;;;;;;;;;25.90;87.60;;;;;;5055939;28;19917;-80
2022/09/01 11:49:54;;;;;;;;;;;25.90;84.40;;;;;;5053584;28;19912;-76
2022/09/01 11:52:21;;;;;;;;;;;25.70;86.40;;;;;;5071177;28;19927;-78
2022/09/01 11:54:47;;;;;;;;;;;25.50;86.40;;;;;;5059113;28;19969;-76
2022/09/01 11:57:16;;;;;;;;;;;25.40;85.70;;;;;;5071305;28;19916;-83
2022/09/01 11:59:42;;;;;;;;;;;25.50;87.00;;;;;;5070201;28;19919;-77
2022/09/01 12:02:15;;;;;;;;;;;25.70;88.10;;;;;;5070030;28;19920;-75
2022/09/01 12:04:41;;;;;;;;;;;25.70;86.50;;;;;;5071595;28;20093;-78
2022/09/01 12:07:10;;;;;;;;;;;25.60;87.90;;;;;;5055593;28;20271;-84
2022/09/01 12:09:43;;;;;;;;;;;25.80;84.40;;;;;;5055847;28;20258;-76
2022/09/01 12:12:27;;;;;;;;;;;25.90;84.00;;;;;;5066878;28;19962;-76
2022/09/01 12:15:01;;;;;;;;;;;25.90;83.30;;;;;;5051466;28;19916;-78
2022/09/01 12:17:27;;;;;;;;;;;25.70;83.00;;;;;;5069090;28;19912;-76
2022/09/01 12:19:53;;;;;;;;;;;25.50;83.00;;;;;;5071478;28;20213;-77
2022/09/01 12:22:20;;;;;;;;;;;25.30;85.30;;;;;;5072265;28;19969;-74
2022/09/01 12:24:47;;;;;;;;;;;25.30;84.20;;;;;;5074333;28;19916;-81
2022/09/01 12:27:13;;;;;;;;;;;25.20;83.80;;;;;;5052775;28;19920;-79
2022/09/01 12:29:39;;;;;;;;;;;25.20;83.40;;;;;;5050066;28;20291;-79
2022/09/01 12:32:05;;;;;;;;;;;25.20;85.00;;;;;;5055519;28;19916;-75
2022/09/01 12:34:41;;;;;;;;;;;25.40;84.90;;;;;;5059746;28;20326;-78
2022/09/01 12:37:24;;;;;;;;;;;25.50;85.30;;;;;;5073142;28;19999;-81
2022/09/01 12:39:51;;;;;;;;;;;25.60;84.90;;;;;;5059351;28;19969;-76
2022/09/01 12:42:18;;;;;;;;;;;25.70;84.00;;;;;;5072570;28;20189;-78
2022/09/01 12:44:45;;;;;;;;;;;25.60;86.20;;;;;;5068993;28;19913;-80
2022/09/01 12:47:30;;;;;;;;;;;25.50;86.30;;;;;;5054749;28;20043;-77
2022/09/01 12:49:55;;;;;;;;;;;25.50;86.70;;;;;;5054580;28;19916;-80
2022/09/01 12:52:26;;;;;;;;;;;25.50;86.40;;;;;;5074111;28;19909;-76
2022/09/01 12:54:51;;;;;;;;;;;25.50;86.00;;;;;;5051816;28;19920;-76
2022/09/01 12:57:36;;;;;;;;;;;25.50;85.30;;;;;;5040923;28;20058;-77
2022/09/01 13:00:19;;;;;;;;;;;25.50;87.40;;;;;;5084284;28;19917;-77
2022/09/01 13:02:48;;;;;;;;;;;25.70;87.80;;;;;;5053517;28;19912;-79
2022/09/01 13:05:21;;;;;;;;;;;25.60;86.60;;;;;;5052284;28;20000;-79
2022/09/01 13:07:46;;;;;;;;;;;25.70;85.90;;;;;;5084207;28;19917;-78
2022/09/01 13:10:12;;;;;;;;;;;25.80;86.70;;;;;;5051609;28;19913;-78
2022/09/01 13:12:42;;;;;;;;;;;25.90;86.50;;;;;;5051187;28;20330;-77
2022/09/01 13:15:08;;;;;;;;;;;25.90;85.60;;;;;;5046597;28;19928;-77
2022/09/01 13:17:34;;;;;;;;;;;25.70;85.30;;;;;;5044313;28;20516;-77
2022/09/01 13:19:59;;;;;;;;;;;25.50;87.20;;;;;;5046558;28;19931;-77
2022/09/01 13:22:25;;;;;;;;;;;25.30;84.10;;;;;;5050363;28;19999;-77
2022/09/01 13:24:51;;;;;;;;;;;25.10;88.10;;;;;;5049613;28;19917;-79
2022/09/01 13:27:16;;;;;;;;;;;25.00;86.70;;;;;;5046392;28;19919;-78
2022/09/01 13:29:42;;;;;;;;;;;25.00;86.90;;;;;;5043482;28;20302;-76
2022/09/01 13:32:08;;;;;;;;;;;25.20;88.00;;;;;;5045266;28;20074;-75
2022/09/01 13:34:34;;;;;;;;;;;25.30;86.50;;;;;;5047933;28;20347;-78
2022/09/01 13:36:59;;;;;;;;;;;25.40;88.50;;;;;;5045483;28;20192;-77
2022/09/01 13:39:25;;;;;;;;;;;25.30;85.80;;;;;;5046259;28;19920;-77
2022/09/01 13:41:51;;;;;;;;;;;25.20;86.10;;;;;;5045371;28;19928;-75
2022/09/01 13:44:17;;;;;;;;;;;24.80;87.20;;;;;;5075580;28;20304;-78
2022/09/01 13:46:43;;;;;;;;;;;24.70;88.70;;;;;;5047400;28;19924;-76
2022/09/01 13:49:09;;;;;;;;;;;24.90;88.40;;;;;;5048063;28;19921;-75
2022/09/01 13:51:36;;;;;;;;;;;25.00;85.50;;;;;;5052119;28;19916;-76
2022/09/01 13:54:02;;;;;;;;;;;24.90;87.60;;;;;;5054114;28;19926;-76
2022/09/01 13:56:28;;;;;;;;;;;24.90;86.00;;;;;;5052523;28;19924;-81
2022/09/01 13:58:54;;;;;;;;;;;24.80;85.80;;;;;;5051405;28;19916;-76
2022/09/01 14:01:21;;;;;;;;;;;24.80;89.10;;;;;;5062448;28;20315;-76
2022/09/01 14:03:48;;;;;;;;;;;24.90;86.90;;;;;;5050386;28;19919;-79
2022/09/01 14:06:14;;;;;;;;;;;24.80;85.60;;;;;;5059523;28;19916;-80
2022/09/01 14:08:40;;;;;;;;;;;24.80;86.40;;;;;;5060693;28;20007;-78
2022/09/01 14:11:05;;;;;;;;;;;24.90;88.30;;;;;;5059280;28;20059;-78
2022/09/01 14:13:31;;;;;;;;;;;25.10;87.90;;;;;;5062607;28;19952;-79
2022/09/01 14:15:57;;;;;;;;;;;25.20;87.40;;;;;;5064002;28;19912;-73
2022/09/01 14:18:35;;;;;;;;;;;25.10;86.00;;;;;;5050540;28;19923;-76
2022/09/01 14:21:01;;;;;;;;;;;25.10;87.60;;;;;;5058154;28;19920;-77
2022/09/01 14:23:27;;;;;;;;;;;25.20;87.60;;;;;;5059130;28;20300;-76
2022/09/01 14:25:53;;;;;;;;;;;25.10;86.00;;;;;;5050852;28;20299;-78
2022/09/01 14:28:20;;;;;;;;;;;25.20;85.80;;;;;;5049360;28;19928;-75